Time;durP1;ratioP1;P1;durP2;ratioP2;P2;SDS_P1;SDS_P2;PMS_P1;PMS_P2;Temp;Humidity;BMP_temperature;BMP_pressure;BME280_temperature;BME280_humidity;BME280_pressure;Samples;Min_cycle;Max_cycle;Signal;HPM_P1;HPM_P2
2021/06/07 00:01:39;;;;;;;3.70;3.40;;;16.30;61.20;;;;;;5032661;28;20176;-76
2021/06/07 00:04:05;;;;;;;4.57;4.18;;;16.10;62.20;;;;;;5033536;28;20112;-76
2021/06/07 00:06:31;;;;;;;5.03;4.00;;;16.00;62.90;;;;;;5043469;28;20024;-76
2021/06/07 00:08:57;;;;;;;4.25;3.85;;;15.90;64.30;;;;;;5031132;28;20037;-76
2021/06/07 00:11:23;;;;;;;4.63;3.72;;;15.80;64.80;;;;;;5048166;28;20482;-77
2021/06/07 00:13:50;;;;;;;5.35;4.35;;;15.60;65.40;;;;;;5051008;28;20032;-76
2021/06/07 00:16:16;;;;;;;4.80;4.28;;;15.50;66.40;;;;;;5067919;28;20060;-76
2021/06/07 00:18:42;;;;;;;5.13;4.70;;;15.40;66.50;;;;;;5050998;28;20112;-76
2021/06/07 00:21:11;;;;;;;6.95;4.22;;;15.30;67.20;;;;;;5052369;28;20549;-76
2021/06/07 00:23:38;;;;;;;6.25;5.50;;;15.30;65.90;;;;;;5039730;28;20538;-76
2021/06/07 00:26:05;;;;;;;5.07;4.25;;;15.20;66.80;;;;;;5036097;28;20105;-76
2021/06/07 00:28:31;;;;;;;5.07;4.30;;;15.10;68.20;;;;;;5034743;28;20057;-75
2021/06/07 00:30:57;;;;;;;5.30;3.85;;;15.00;67.70;;;;;;5035899;28;20033;-76
2021/06/07 00:33:23;;;;;;;6.10;4.63;;;15.00;67.40;;;;;;5034759;28;20028;-76
2021/06/07 00:35:49;;;;;;;4.93;4.07;;;14.90;66.30;;;;;;5034563;28;20457;-76
2021/06/07 00:38:15;;;;;;;4.35;3.95;;;14.90;65.40;;;;;;5035938;28;20383;-76
2021/06/07 00:40:40;;;;;;;6.30;4.53;;;14.90;65.10;;;;;;5034458;28;20060;-76
2021/06/07 00:43:06;;;;;;;4.80;4.15;;;14.80;65.80;;;;;;5034466;28;20486;-76
2021/06/07 00:45:34;;;;;;;5.00;3.80;;;14.80;67.60;;;;;;5035575;28;20088;-75
2021/06/07 00:48:03;;;;;;;4.18;3.65;;;14.80;67.90;;;;;;5035557;28;20399;-76
2021/06/07 00:50:28;;;;;;;4.78;3.45;;;14.80;67.50;;;;;;5034424;28;20022;-75
2021/06/07 00:53:01;;;;;;;4.40;3.83;;;14.70;68.20;;;;;;5035592;28;20037;-75
2021/06/07 00:55:30;;;;;;;7.35;4.00;;;14.60;68.90;;;;;;5035584;28;20022;-75
2021/06/07 00:57:56;;;;;;;5.97;4.60;;;14.60;69.80;;;;;;5035402;28;20029;-75
2021/06/07 01:00:23;;;;;;;4.97;4.07;;;14.50;70.40;;;;;;5053463;28;20036;-75
2021/06/07 01:02:50;;;;;;;6.05;4.70;;;14.40;70.00;;;;;;5054011;28;20504;-76
2021/06/07 01:05:16;;;;;;;5.78;4.50;;;14.40;70.70;;;;;;5055598;28;20028;-75
2021/06/07 01:07:42;;;;;;;6.75;4.93;;;14.30;71.70;;;;;;5055167;28;20032;-75
2021/06/07 01:10:09;;;;;;;5.35;4.78;;;14.20;72.60;;;;;;5055132;28;20025;-75
2021/06/07 01:12:35;;;;;;;5.78;4.85;;;14.10;75.10;;;;;;5055117;28;20029;-76
2021/06/07 01:15:02;;;;;;;6.63;5.55;;;14.00;75.50;;;;;;5055074;28;20112;-75
2021/06/07 01:17:28;;;;;;;6.82;4.53;;;13.90;75.90;;;;;;5055138;28;20052;-76
2021/06/07 01:19:54;;;;;;;7.07;4.85;;;13.80;76.60;;;;;;5055193;28;20445;-76
2021/06/07 01:22:20;;;;;;;6.90;4.95;;;13.80;76.30;;;;;;5055130;28;20432;-76
2021/06/07 01:24:46;;;;;;;5.80;4.53;;;13.70;78.70;;;;;;5054902;28;20071;-75
2021/06/07 01:27:12;;;;;;;5.95;4.97;;;13.60;78.20;;;;;;5054977;28;20033;-75
2021/06/07 01:29:38;;;;;;;7.03;5.63;;;13.60;78.30;;;;;;5054749;28;20037;-76
2021/06/07 01:32:05;;;;;;;5.13;4.68;;;13.50;79.40;;;;;;5053478;28;20013;-75
2021/06/07 01:34:32;;;;;;;4.78;4.28;;;13.40;80.70;;;;;;5054105;28;20029;-75
2021/06/07 01:36:57;;;;;;;8.18;4.82;;;13.20;81.90;;;;;;5053412;28;20063;-75
2021/06/07 01:39:27;;;;;;;9.02;5.13;;;13.10;83.10;;;;;;5054763;28;20053;-76
2021/06/07 01:41:56;;;;;;;7.82;5.30;;;13.00;84.60;;;;;;5054499;28;20017;-75
2021/06/07 01:44:22;;;;;;;8.18;5.10;;;12.90;86.10;;;;;;5053215;28;20037;-75
2021/06/07 01:46:49;;;;;;;6.05;5.45;;;12.70;87.10;;;;;;5054513;28;20078;-76
2021/06/07 01:49:16;;;;;;;9.38;5.20;;;12.70;87.60;;;;;;5053182;28;20374;-76
2021/06/07 01:51:42;;;;;;;8.45;5.22;;;12.70;88.70;;;;;;5054418;28;20028;-76
2021/06/07 01:54:08;;;;;;;6.65;5.88;;;12.60;89.90;;;;;;5054328;28;20029;-75
2021/06/07 01:56:35;;;;;;;5.88;5.28;;;12.60;89.40;;;;;;5054416;28;20067;-76
2021/06/07 01:59:01;;;;;;;8.48;5.13;;;12.60;89.60;;;;;;5047268;28;20037;-75
2021/06/07 02:01:28;;;;;;;9.15;5.18;;;12.50;90.80;;;;;;5032938;28;20095;-76
2021/06/07 02:03:54;;;;;;;6.78;5.15;;;12.50;91.40;;;;;;5034207;28;20037;-75
2021/06/07 02:06:22;;;;;;;8.50;5.57;;;12.50;90.80;;;;;;5033002;28;20029;-75
2021/06/07 02:08:50;;;;;;;8.02;5.07;;;12.50;91.30;;;;;;5036970;28;20029;-75
2021/06/07 02:11:25;;;;;;;7.22;5.20;;;12.50;91.50;;;;;;5053473;28;20478;-76
2021/06/07 02:13:53;;;;;;;7.35;5.05;;;12.40;90.70;;;;;;5049364;28;20022;-76
2021/06/07 02:16:23;;;;;;;5.95;4.90;;;12.40;90.70;;;;;;5042627;28;20079;-75
2021/06/07 02:18:49;;;;;;;6.13;4.60;;;12.40;89.60;;;;;;5053665;28;20451;-75
2021/06/07 02:21:17;;;;;;;5.45;4.80;;;12.30;88.50;;;;;;5053905;28;20045;-75
2021/06/07 02:23:44;;;;;;;5.20;4.70;;;12.30;88.70;;;;;;5053350;28;20035;-75
2021/06/07 02:26:10;;;;;;;8.73;5.40;;;12.30;89.00;;;;;;5052515;28;20520;-75
2021/06/07 02:28:36;;;;;;;7.13;5.60;;;12.30;90.30;;;;;;5052406;28;20042;-75
2021/06/07 02:31:03;;;;;;;5.25;4.75;;;12.30;90.20;;;;;;5053546;28;20017;-75
2021/06/07 02:33:30;;;;;;;8.32;4.93;;;12.30;90.40;;;;;;5052482;28;20025;-75
2021/06/07 02:35:56;;;;;;;5.55;4.85;;;12.30;91.40;;;;;;5032271;28;20489;-75
2021/06/07 02:38:22;;;;;;;6.63;5.03;;;12.30;90.60;;;;;;5032451;28;20065;-76
2021/06/07 02:40:49;;;;;;;5.82;5.28;;;12.30;90.60;;;;;;5045618;28;20028;-75
2021/06/07 02:43:15;;;;;;;6.10;5.43;;;12.20;92.90;;;;;;5052276;28;20033;-75
2021/06/07 02:45:42;;;;;;;7.63;6.07;;;12.10;92.50;;;;;;5039298;28;20068;-75
2021/06/07 02:48:08;;;;;;;6.07;5.47;;;12.00;93.10;;;;;;5046345;28;20029;-75
2021/06/07 02:50:38;;;;;;;7.28;5.78;;;12.00;93.30;;;;;;5052999;28;20021;-75
2021/06/07 02:53:05;;;;;;;6.78;5.40;;;12.00;94.20;;;;;;5052049;28;20017;-75
2021/06/07 02:55:34;;;;;;;5.80;5.30;;;11.90;94.80;;;;;;5051997;28;20025;-75
2021/06/07 02:58:00;;;;;;;6.80;5.65;;;11.90;96.60;;;;;;5053254;28;20014;-75
2021/06/07 03:00:48;;;;;;;9.18;5.50;;;11.90;97.20;;;;;;5053158;28;20432;-75
2021/06/07 03:03:14;;;;;;;6.22;4.75;;;11.90;96.50;;;;;;5051927;28;20032;-75
2021/06/07 03:05:42;;;;;;;30.25;8.30;;;11.90;96.70;;;;;;5052666;28;20035;-75
2021/06/07 03:08:10;;;;;;;9.60;5.57;;;11.90;95.80;;;;;;5032414;28;20033;-75
2021/06/07 03:10:36;;;;;;;15.48;5.40;;;12.00;94.00;;;;;;5039597;28;20120;-75
2021/06/07 03:13:02;;;;;;;6.20;4.82;;;12.00;93.20;;;;;;5052998;28;20021;-76
2021/06/07 03:15:28;;;;;;;8.40;5.70;;;12.00;93.30;;;;;;5051699;28;20024;-76
2021/06/07 03:17:55;;;;;;;8.52;4.68;;;12.00;93.30;;;;;;5051403;28;20024;-76
2021/06/07 03:20:27;;;;;;;7.68;5.13;;;12.10;93.00;;;;;;5051479;28;20025;-76
2021/06/07 03:22:55;;;;;;;8.85;5.93;;;12.20;93.00;;;;;;5051447;28;20489;-75
2021/06/07 03:25:21;;;;;;;12.07;7.72;;;12.20;93.50;;;;;;5051600;28;20181;-76
2021/06/07 03:27:47;;;;;;;9.43;7.15;;;12.00;93.80;;;;;;5051672;28;20036;-75
2021/06/07 03:30:13;;;;;;;15.40;12.93;;;12.00;92.50;;;;;;5051552;28;20017;-75
2021/06/07 03:32:39;;;;;;;19.92;15.63;;;12.00;92.20;;;;;;5052821;28;20075;-75
2021/06/07 03:35:11;;;;;;;27.02;24.08;;;11.90;93.10;;;;;;5051311;28;20029;-75
2021/06/07 03:37:38;;;;;;;26.92;19.75;;;11.80;94.10;;;;;;5051254;28;20108;-75
2021/06/07 03:40:10;;;;;;;23.63;18.92;;;11.80;94.90;;;;;;5051283;28;20021;-75
2021/06/07 03:42:36;;;;;;;18.00;16.13;;;11.90;95.30;;;;;;5052751;28;20083;-75
2021/06/07 03:45:04;;;;;;;19.70;17.73;;;12.00;95.50;;;;;;5052965;28;20044;-75
2021/06/07 03:47:30;;;;;;;26.33;23.60;;;12.00;95.80;;;;;;5050947;28;20401;-75
2021/06/07 03:49:56;;;;;;;28.52;25.52;;;12.10;96.00;;;;;;5052456;28;20029;-75
2021/06/07 03:52:21;;;;;;;17.13;15.27;;;12.10;95.50;;;;;;5051997;28;20023;-75
2021/06/07 03:54:47;;;;;;;14.40;11.90;;;12.10;94.30;;;;;;5052472;28;20374;-75
2021/06/07 03:57:13;;;;;;;13.32;9.80;;;12.10;94.50;;;;;;5054240;28;20017;-75
2021/06/07 03:59:38;;;;;;;13.30;11.40;;;12.20;94.90;;;;;;5055194;28;20439;-75
2021/06/07 04:02:08;;;;;;;15.35;13.30;;;12.30;94.90;;;;;;5056534;28;20021;-75
2021/06/07 04:04:34;;;;;;;13.13;11.57;;;12.30;95.20;;;;;;5047032;28;20025;-75
2021/06/07 04:06:59;;;;;;;7.90;7.20;;;12.40;94.90;;;;;;5037210;28;20414;-75
2021/06/07 04:09:26;;;;;;;9.18;7.18;;;12.30;95.50;;;;;;5036338;28;20041;-75
2021/06/07 04:11:52;;;;;;;9.63;7.22;;;12.40;94.70;;;;;;5037467;28;20021;-75
2021/06/07 04:14:18;;;;;;;11.80;7.57;;;12.60;96.00;;;;;;5036360;28;20037;-75
2021/06/07 04:16:43;;;;;;;9.00;6.85;;;12.90;93.60;;;;;;5037279;28;20048;-75
2021/06/07 04:19:09;;;;;;;6.85;5.97;;;13.20;90.30;;;;;;5054898;28;20036;-75
2021/06/07 04:21:37;;;;;;;9.30;6.38;;;13.50;88.20;;;;;;5054903;28;20028;-75
2021/06/07 04:24:04;;;;;;;7.72;6.20;;;13.80;86.30;;;;;;5056078;28;20067;-75
2021/06/07 04:26:29;;;;;;;6.75;6.05;;;14.00;84.30;;;;;;5039778;28;20032;-75
2021/06/07 04:28:55;;;;;;;7.85;6.30;;;14.30;83.50;;;;;;5070474;28;20052;-75
2021/06/07 04:31:20;;;;;;;6.68;5.97;;;14.50;83.10;;;;;;5055111;28;20021;-75
2021/06/07 04:33:46;;;;;;;7.97;5.53;;;14.70;82.70;;;;;;5055133;28;20024;-75
2021/06/07 04:36:12;;;;;;;6.95;5.70;;;14.90;82.60;;;;;;5049842;28;20021;-75
2021/06/07 04:38:37;;;;;;;7.88;6.35;;;15.20;82.00;;;;;;5052655;28;20029;-76
2021/06/07 04:41:03;;;;;;;8.82;5.75;;;15.30;80.90;;;;;;5055207;28;20121;-76
2021/06/07 04:43:29;;;;;;;7.07;5.70;;;15.60;80.70;;;;;;5051022;28;20481;-75
2021/06/07 04:45:54;;;;;;;7.57;5.38;;;15.70;81.00;;;;;;5055990;28;20031;-75
2021/06/07 04:48:20;;;;;;;8.95;5.18;;;16.00;80.00;;;;;;5039251;28;20397;-75
2021/06/07 04:50:46;;;;;;;8.35;5.40;;;16.20;79.60;;;;;;5032771;28;20441;-75
2021/06/07 04:53:12;;;;;;;11.35;5.55;;;16.50;77.90;;;;;;5042896;28;20389;-75
2021/06/07 04:55:45;;;;;;;9.43;5.25;;;16.70;76.40;;;;;;5035204;28;20034;-75
2021/06/07 04:58:12;;;;;;;;;;;16.80;76.20;;;;;;5034053;28;20406;-75
2021/06/07 05:00:40;;;;;;;7.20;5.30;;;17.00;74.40;;;;;;5033360;28;20448;-75
2021/06/07 05:03:06;;;;;;;9.30;5.47;;;17.10;73.60;;;;;;5034888;28;20111;-75
2021/06/07 05:05:33;;;;;;;5.38;4.60;;;17.20;71.20;;;;;;5033364;28;20076;-75
2021/06/07 05:07:59;;;;;;;6.15;4.55;;;17.40;70.90;;;;;;5031829;28;20097;-75
2021/06/07 05:10:25;;;;;;;6.20;4.47;;;17.50;70.10;;;;;;5035178;28;20124;-75
2021/06/07 05:12:51;;;;;;;6.38;4.13;;;17.60;69.70;;;;;;5033941;28;20064;-75
2021/06/07 05:15:17;;;;;;;5.60;5.07;;;17.70;70.70;;;;;;5031401;28;20450;-75
2021/06/07 05:17:44;;;;;;;4.97;4.28;;;17.70;70.20;;;;;;5041428;28;20017;-75
2021/06/07 05:20:15;;;;;;;6.32;5.03;;;17.70;71.40;;;;;;5039842;28;20091;-75
2021/06/07 05:22:42;;;;;;;10.80;5.63;;;17.60;70.10;;;;;;5035849;28;20025;-75
2021/06/07 05:25:09;;;;;;;8.45;5.85;;;17.50;75.20;;;;;;5050283;28;20028;-75
2021/06/07 05:27:35;;;;;;;7.80;7.10;;;17.40;70.50;;;;;;5042134;28;20104;-75
2021/06/07 05:30:02;;;;;;;7.15;6.00;;;17.30;70.90;;;;;;5032753;28;20116;-75
2021/06/07 05:32:28;;;;;;;7.57;5.57;;;17.30;72.00;;;;;;5039839;28;20088;-75
2021/06/07 05:34:54;;;;;;;6.50;5.40;;;17.20;72.90;;;;;;5044668;28;20025;-75
2021/06/07 05:37:20;;;;;;;7.53;5.15;;;17.10;73.10;;;;;;5037795;28;20386;-76
2021/06/07 05:39:46;;;;;;;6.18;5.00;;;17.00;72.60;;;;;;5030553;28;20501;-76
2021/06/07 05:42:12;;;;;;;8.60;5.07;;;16.90;73.30;;;;;;5031588;28;20112;-75
2021/06/07 05:44:38;;;;;;;6.13;5.18;;;16.90;73.30;;;;;;5032635;28;20121;-75
2021/06/07 05:47:04;;;;;;;5.72;5.10;;;16.90;73.90;;;;;;5035557;28;20509;-76
2021/06/07 05:49:29;;;;;;;5.70;4.75;;;16.90;74.20;;;;;;5052237;28;20072;-75
2021/06/07 05:51:55;;;;;;;11.00;5.40;;;16.90;75.40;;;;;;5065925;28;20035;-76
2021/06/07 05:54:21;;;;;;;6.88;5.22;;;17.00;76.40;;;;;;5052677;28;20020;-75
2021/06/07 05:56:53;;;;;;;17.63;6.65;;;17.20;75.20;;;;;;5029915;28;20451;-75
2021/06/07 05:59:19;;;;;;;10.95;5.85;;;17.40;75.30;;;;;;5034476;28;20136;-75
2021/06/07 06:01:45;;;;;;;5.32;4.57;;;17.70;72.70;;;;;;5037660;28;20436;-76
2021/06/07 06:04:11;;;;;;;5.63;5.13;;;17.90;70.20;;;;;;5040589;28;20076;-76
2021/06/07 06:06:37;;;;;;;9.68;4.55;;;18.20;69.30;;;;;;5038114;28;20038;-76
2021/06/07 06:09:03;;;;;;;13.82;4.57;;;18.40;67.70;;;;;;5046351;28;20415;-74
2021/06/07 06:11:29;;;;;;;6.93;4.35;;;18.50;67.50;;;;;;5041531;28;20037;-74
2021/06/07 06:13:55;;;;;;;5.80;4.70;;;18.60;66.60;;;;;;5034566;28;20096;-75
2021/06/07 06:16:22;;;;;;;8.13;4.47;;;18.70;66.00;;;;;;5033421;28;20095;-75
2021/06/07 06:18:48;;;;;;;5.68;4.88;;;18.80;66.50;;;;;;5048188;28;20116;-75
2021/06/07 06:21:14;;;;;;;6.15;4.35;;;19.00;64.30;;;;;;5049410;28;20136;-75
2021/06/07 06:23:40;;;;;;;4.10;3.67;;;19.20;62.20;;;;;;5041188;28;20096;-75
2021/06/07 06:26:08;;;;;;;5.10;4.63;;;19.30;59.70;;;;;;5043494;28;20033;-75
2021/06/07 06:28:35;;;;;;;6.53;4.82;;;19.60;60.30;;;;;;5037523;28;20505;-75
2021/06/07 06:31:03;;;;;;;10.50;4.70;;;19.80;60.10;;;;;;5045596;28;20064;-75
2021/06/07 06:33:29;;;;;;;6.97;4.05;;;20.10;61.20;;;;;;5044731;28;20022;-75
2021/06/07 06:35:54;;;;;;;5.22;4.00;;;20.30;61.80;;;;;;5043632;28;20033;-75
2021/06/07 06:38:20;;;;;;;12.18;3.97;;;20.60;60.90;;;;;;5040909;28;20462;-75
2021/06/07 06:40:47;;;;;;;6.13;4.00;;;20.80;59.00;;;;;;5041419;28;20033;-75
2021/06/07 06:43:13;;;;;;;4.18;3.35;;;20.90;59.70;;;;;;5044371;28;20016;-75
2021/06/07 06:45:40;;;;;;;3.85;3.55;;;21.00;59.00;;;;;;5025356;28;20033;-75
2021/06/07 06:48:06;;;;;;;4.55;3.83;;;21.00;55.40;;;;;;5039490;28;20033;-75
2021/06/07 06:50:36;;;;;;;5.35;3.40;;;21.20;54.80;;;;;;5043179;28;20029;-75
2021/06/07 06:53:11;;;;;;;4.05;3.03;;;21.30;55.90;;;;;;5040194;28;20473;-75
2021/06/07 06:55:37;;;;;;;4.00;3.20;;;21.60;54.70;;;;;;5040720;28;20041;-75
2021/06/07 06:58:04;;;;;;;3.10;2.80;;;21.80;54.30;;;;;;5045032;28;20032;-75
2021/06/07 07:00:35;;;;;;;5.28;3.97;;;22.00;54.20;;;;;;5038710;28;20036;-75
2021/06/07 07:03:01;;;;;;;3.23;2.97;;;22.00;51.50;;;;;;5045538;28;20051;-75
2021/06/07 07:05:27;;;;;;;4.07;3.22;;;22.10;51.80;;;;;;5046050;28;20120;-75
2021/06/07 07:07:53;;;;;;;3.67;3.13;;;22.30;51.00;;;;;;5030333;28;20542;-75
2021/06/07 07:10:18;;;;;;;3.65;2.92;;;22.40;50.30;;;;;;5027732;28;20030;-76
2021/06/07 07:12:47;;;;;;;3.40;2.88;;;22.50;48.10;;;;;;5043155;28;20028;-73
2021/06/07 07:15:13;;;;;;;5.65;2.90;;;22.50;44.50;;;;;;5049449;28;20032;-75
2021/06/07 07:17:39;;;;;;;4.65;2.88;;;22.50;42.60;;;;;;5037384;28;20478;-74
2021/06/07 07:20:05;;;;;;;4.35;2.72;;;22.70;42.50;;;;;;5044160;28;20071;-75
2021/06/07 07:22:31;;;;;;;5.95;3.00;;;22.90;42.70;;;;;;5042962;28;20024;-74
2021/06/07 07:24:57;;;;;;;2.65;2.30;;;22.90;41.60;;;;;;5044362;28;20037;-75
2021/06/07 07:27:24;;;;;;;6.63;2.75;;;23.00;42.00;;;;;;5044647;28;20484;-76
2021/06/07 07:29:49;;;;;;;5.45;2.72;;;23.10;41.80;;;;;;5031090;28;20487;-74
2021/06/07 07:32:16;;;;;;;4.03;2.58;;;23.10;41.10;;;;;;5034573;28;20032;-74
2021/06/07 07:34:42;;;;;;;2.65;2.45;;;23.00;40.90;;;;;;5037294;28;20033;-75
2021/06/07 07:37:09;;;;;;;4.05;3.13;;;23.10;40.90;;;;;;5036703;28;20078;-75
2021/06/07 07:39:35;;;;;;;6.68;2.95;;;23.10;41.40;;;;;;5041290;28;20276;-75
2021/06/07 07:42:01;;;;;;;5.03;2.33;;;23.00;39.40;;;;;;5031559;28;20018;-75
2021/06/07 07:44:27;;;;;;;3.63;3.00;;;22.90;38.80;;;;;;5033123;28;20482;-75
2021/06/07 07:46:53;;;;;;;3.42;2.72;;;22.90;39.50;;;;;;5033255;28;20143;-75
2021/06/07 07:49:20;;;;;;;3.85;2.90;;;23.10;39.50;;;;;;5035900;28;20041;-75
2021/06/07 07:51:46;;;;;;;3.50;2.53;;;23.00;38.80;;;;;;5042052;28;20064;-74
2021/06/07 07:54:13;;;;;;;6.20;2.47;;;23.00;39.10;;;;;;5049508;28;20025;-74
2021/06/07 07:56:39;;;;;;;4.13;2.95;;;22.70;39.70;;;;;;5029779;28;20033;-75
2021/06/07 07:59:05;;;;;;;6.68;3.53;;;22.60;39.20;;;;;;5035809;28;20018;-75
2021/06/07 08:01:31;;;;;;;3.85;3.15;;;22.80;40.30;;;;;;5033396;28;20375;-75
2021/06/07 08:03:56;;;;;;;3.65;2.75;;;22.80;40.80;;;;;;5040658;28;20017;-74
2021/06/07 08:06:22;;;;;;;4.28;2.75;;;22.90;41.30;;;;;;5035576;28;20037;-74
2021/06/07 08:08:48;;;;;;;5.18;3.08;;;23.00;41.90;;;;;;5038968;28;20036;-74
2021/06/07 08:11:15;;;;;;;3.50;3.20;;;23.20;41.60;;;;;;5034124;28;20124;-75
2021/06/07 08:14:07;;;;;;;9.65;3.95;;;22.90;41.10;;;;;;5029809;28;20037;-74
2021/06/07 08:16:33;;;;;;;;;;;23.10;41.70;;;;;;5036134;28;20025;-73
2021/06/07 08:18:59;;;;;;;4.13;2.83;;;23.30;42.20;;;;;;5046172;28;19908;-74
2021/06/07 08:21:25;;;;;;;3.55;3.13;;;23.20;42.00;;;;;;5047248;28;20041;-74
2021/06/07 08:23:50;;;;;;;6.03;3.63;;;23.00;42.70;;;;;;5045454;28;20021;-75
2021/06/07 08:26:16;;;;;;;3.40;3.10;;;22.70;42.10;;;;;;5034939;28;20059;-75
2021/06/07 08:28:42;;;;;;;5.40;3.35;;;22.90;41.90;;;;;;5044872;28;20036;-75
2021/06/07 08:31:08;;;;;;;4.40;4.00;;;22.70;41.80;;;;;;5031102;28;20037;-76
2021/06/07 08:33:35;;;;;;;6.53;3.50;;;22.90;42.00;;;;;;5026289;28;20129;-75
2021/06/07 08:36:03;;;;;;;3.38;3.08;;;23.10;41.50;;;;;;5034336;28;20045;-74
2021/06/07 08:38:29;;;;;;;3.95;3.60;;;23.00;40.60;;;;;;5038038;28;20029;-75
2021/06/07 08:40:55;;;;;;;4.75;3.30;;;23.30;41.00;;;;;;5048645;28;20043;-75
2021/06/07 08:43:22;;;;;;;5.97;3.80;;;23.40;41.20;;;;;;5033697;28;20045;-76
2021/06/07 08:45:48;;;;;;;5.43;3.10;;;23.60;41.50;;;;;;5053317;28;20478;-75
2021/06/07 08:48:15;;;;;;;4.03;3.10;;;23.60;40.40;;;;;;5045934;28;20029;-75
2021/06/07 08:50:40;;;;;;;5.13;3.70;;;23.50;40.30;;;;;;5053048;28;20512;-75
2021/06/07 08:53:06;;;;;;;3.67;3.38;;;23.80;40.90;;;;;;5053182;28;20120;-75
2021/06/07 08:55:34;;;;;;;3.60;3.30;;;23.60;40.40;;;;;;5044448;28;20028;-75
2021/06/07 08:58:03;;;;;;;4.38;3.45;;;23.60;39.20;;;;;;5067342;28;20029;-76
2021/06/07 09:00:32;;;;;;;5.30;3.70;;;23.60;38.90;;;;;;5047805;28;20032;-76
2021/06/07 09:03:10;;;;;;;3.40;2.88;;;23.60;39.40;;;;;;5032258;28;20133;-76
2021/06/07 09:05:37;;;;;;;4.88;3.17;;;23.60;39.50;;;;;;5040387;28;20478;-76
2021/06/07 09:08:09;;;;;;;3.03;2.83;;;23.70;40.70;;;;;;5037836;28;20033;-76
2021/06/07 09:10:38;;;;;;;4.75;3.53;;;23.80;41.00;;;;;;5043251;28;20029;-76
2021/06/07 09:13:06;;;;;;;4.57;3.03;;;23.90;40.60;;;;;;5039359;28;20545;-76
2021/06/07 09:15:37;;;;;;;4.60;3.20;;;24.20;40.90;;;;;;5036276;28;20028;-76
2021/06/07 09:18:05;;;;;;;3.92;2.88;;;24.10;41.80;;;;;;5043583;28;20022;-75
2021/06/07 09:20:31;;;;;;;3.53;3.28;;;24.30;40.60;;;;;;5033847;28;20120;-75
2021/06/07 09:23:06;;;;;;;3.60;3.30;;;23.80;39.90;;;;;;5037645;28;20403;-76
2021/06/07 09:25:38;;;;;;;3.00;2.80;;;23.40;40.10;;;;;;5038413;28;20061;-75
2021/06/07 09:28:13;;;;;;;3.38;3.08;;;23.50;39.80;;;;;;5045945;28;20138;-76
2021/06/07 09:30:48;;;;;;;5.63;3.30;;;24.00;39.80;;;;;;5049887;28;20500;-76
2021/06/07 09:33:28;;;;;;;9.52;3.90;;;23.90;39.70;;;;;;5049174;28;20051;-75
2021/06/07 09:36:12;;;;;;;4.68;3.20;;;23.60;39.40;;;;;;5049377;28;20025;-76
2021/06/07 09:39:17;;;;;;;3.50;3.20;;;23.70;39.50;;;;;;5046175;28;20021;-75
2021/06/07 09:41:46;;;;;;;3.83;3.10;;;23.40;39.50;;;;;;5031927;28;20037;-76
2021/06/07 09:44:46;;;;;;;4.25;2.92;;;23.70;40.40;;;;;;5028183;28;20112;-76
2021/06/07 09:47:14;;;;;;;4.65;3.38;;;23.90;39.50;;;;;;5039405;28;20551;-76
2021/06/07 09:49:59;;;;;;;5.15;3.40;;;24.30;41.00;;;;;;5044721;28;20057;-76
2021/06/07 09:52:43;;;;;;;3.17;2.92;;;24.30;40.70;;;;;;5032506;28;20040;-75
2021/06/07 09:55:12;;;;;;;4.78;3.33;;;24.00;40.70;;;;;;5051319;28;20474;-76
2021/06/07 09:57:43;;;;;;;4.43;3.58;;;23.60;41.30;;;;;;5048837;28;20039;-76
2021/06/07 10:00:10;;;;;;;4.10;3.60;;;23.40;41.20;;;;;;5050413;28;20124;-76
2021/06/07 10:02:37;;;;;;;4.57;3.58;;;23.50;41.30;;;;;;5048049;28;20040;-76
2021/06/07 10:05:04;;;;;;;5.00;3.20;;;23.90;41.60;;;;;;5050328;28;20023;-76
2021/06/07 10:07:30;;;;;;;3.58;3.25;;;23.90;41.70;;;;;;5043988;28;20124;-76
2021/06/07 10:10:13;;;;;;;4.45;2.97;;;24.40;40.40;;;;;;5050992;28;20162;-76
2021/06/07 10:12:40;;;;;;;7.25;3.75;;;24.50;40.40;;;;;;5050493;28;20994;-76
2021/06/07 10:15:10;;;;;;;3.45;3.25;;;24.30;40.80;;;;;;5051240;28;20470;-77
2021/06/07 10:17:36;;;;;;;4.10;3.20;;;24.00;41.70;;;;;;5050118;28;20108;-76
2021/06/07 10:22:29;;;;;;;4.00;3.58;;;23.50;41.80;;;;;;5043041;28;20040;-76
2021/06/07 10:24:55;;;;;;;4.97;3.55;;;23.60;42.60;;;;;;5052208;28;20021;-76
2021/06/07 10:27:21;;;;;;;3.72;3.22;;;23.70;42.10;;;;;;5050137;28;20039;-77
2021/06/07 10:29:49;;;;;;;6.95;3.33;;;23.90;41.50;;;;;;5050824;28;20497;-76
2021/06/07 10:32:25;;;;;;;3.28;2.88;;;23.90;41.20;;;;;;5049978;28;20068;-76
2021/06/07 10:34:57;;;;;;;3.50;3.05;;;23.60;41.00;;;;;;5051107;28;20434;-76
2021/06/07 10:37:24;;;;;;;3.28;3.00;;;24.00;40.30;;;;;;5051590;28;20394;-76
2021/06/07 10:39:51;;;;;;;5.93;2.95;;;24.20;39.80;;;;;;5035220;28;20437;-76
2021/06/07 10:42:19;;;;;;;3.25;2.95;;;24.10;39.70;;;;;;5047438;28;20037;-76
2021/06/07 10:44:50;;;;;;;2.95;2.65;;;24.50;39.00;;;;;;5050795;28;20065;-76
2021/06/07 10:47:47;;;;;;;6.13;3.42;;;24.60;37.70;;;;;;5049465;28;20069;-76
2021/06/07 10:50:17;;;;;;;3.30;2.95;;;24.60;38.50;;;;;;5025832;28;20037;-76
2021/06/07 10:53:03;;;;;;;7.47;3.08;;;24.10;38.50;;;;;;5034532;28;20033;-76
2021/06/07 10:55:31;;;;;;;3.40;2.90;;;24.00;38.40;;;;;;5029451;28;20099;-76
2021/06/07 10:58:03;;;;;;;4.72;3.03;;;24.00;38.00;;;;;;5031691;28;20434;-76
2021/06/07 11:00:37;;;;;;;3.85;2.60;;;24.40;38.60;;;;;;5029957;28;20029;-77
2021/06/07 11:03:14;;;;;;;3.88;3.00;;;24.80;38.20;;;;;;5029908;28;20026;-77
2021/06/07 11:05:41;;;;;;;5.85;3.50;;;25.00;38.20;;;;;;5031023;28;20045;-75
2021/06/07 11:08:11;;;;;;;4.25;3.13;;;24.90;38.80;;;;;;5026216;28;20513;-75
2021/06/07 11:10:43;;;;;;;6.18;3.47;;;24.80;37.90;;;;;;5031170;28;20037;-76
2021/06/07 11:13:17;;;;;;;3.60;3.00;;;25.00;38.20;;;;;;5030233;28;20092;-76
2021/06/07 11:15:55;;;;;;;3.10;2.90;;;25.10;37.90;;;;;;5031536;28;20026;-76
2021/06/07 11:18:21;;;;;;;3.90;3.35;;;25.00;37.40;;;;;;5033417;28;20112;-76
2021/06/07 11:20:48;;;;;;;4.30;3.75;;;25.30;38.00;;;;;;5051304;28;20060;-76
2021/06/07 11:23:19;;;;;;;3.28;2.78;;;25.30;37.40;;;;;;5050769;28;20508;-76
2021/06/07 11:25:53;;;;;;;5.35;3.20;;;25.20;36.70;;;;;;5045214;28;20035;-76
2021/06/07 11:28:40;;;;;;;4.20;3.10;;;25.30;37.00;;;;;;5042792;28;20103;-77
2021/06/07 11:31:15;;;;;;;5.57;3.00;;;25.30;36.10;;;;;;5027983;28;20489;-77
2021/06/07 11:33:51;;;;;;;9.98;2.80;;;25.70;35.70;;;;;;5031734;28;20098;-77
2021/06/07 11:36:35;;;;;;;3.65;2.83;;;25.70;34.30;;;;;;5029834;28;20522;-76
2021/06/07 11:39:01;;;;;;;3.47;3.17;;;25.60;34.40;;;;;;5030766;28;20029;-77
2021/06/07 11:41:54;;;;;;;3.28;2.72;;;24.70;35.90;;;;;;5029167;28;20098;-76
2021/06/07 11:44:45;;;;;;;3.85;2.97;;;24.30;37.80;;;;;;5030337;28;20044;-76
2021/06/07 11:47:14;;;;;;;3.70;3.40;;;23.90;39.00;;;;;;5046765;28;20024;-77
2021/06/07 11:49:55;;;;;;;4.50;2.72;;;23.60;38.80;;;;;;5033401;28;20088;-76
2021/06/07 11:52:50;;;;;;;4.57;3.20;;;23.90;39.10;;;;;;5028858;28;20021;-76
2021/06/07 11:55:33;;;;;;;3.00;2.67;;;24.10;38.50;;;;;;5064811;28;20021;-76
2021/06/07 11:58:17;;;;;;;;;;;24.50;38.00;;;;;;5048187;28;20086;-76
2021/06/07 12:00:52;;;;;;;4.18;3.78;;;24.90;37.80;;;;;;5037110;28;19909;-77
2021/06/07 12:03:24;;;;;;;3.17;2.88;;;25.30;36.50;;;;;;5030876;28;20026;-76
2021/06/07 12:05:51;;;;;;;3.78;3.20;;;25.60;36.30;;;;;;5031916;28;20115;-76
2021/06/07 12:08:18;;;;;;;3.38;3.08;;;25.60;35.00;;;;;;5034814;28;20037;-76
2021/06/07 12:10:53;;;;;;;3.63;3.28;;;25.80;35.40;;;;;;5039129;28;20029;-76
2021/06/07 12:13:32;;;;;;;4.85;3.38;;;25.60;36.10;;;;;;5043032;28;20021;-76
2021/06/07 12:16:15;;;;;;;7.93;3.42;;;24.90;37.30;;;;;;5061433;28;20057;-76
2021/06/07 12:18:46;;;;;;;4.10;3.28;;;24.30;37.30;;;;;;5043978;28;20473;-76
2021/06/07 12:21:17;;;;;;;3.72;3.42;;;24.00;37.80;;;;;;5046845;28;20087;-75
2021/06/07 12:24:01;;;;;;;5.57;3.08;;;23.90;38.10;;;;;;5044974;28;20071;-75
2021/06/07 12:29:19;;;;;;;3.45;3.15;;;24.00;37.80;;;;;;5046607;28;20528;-76
2021/06/07 12:32:30;;;;;;;5.30;3.08;;;23.80;38.90;;;;;;5050308;28;20009;-76
2021/06/07 12:35:13;;;;;;;3.53;3.25;;;23.90;39.60;;;;;;5031210;28;20116;-76
2021/06/07 12:37:52;;;;;;;4.28;3.88;;;24.30;39.80;;;;;;5059877;28;20025;-75
2021/06/07 12:40:20;;;;;;;3.42;3.13;;;24.40;39.40;;;;;;5046835;28;20230;-76
2021/06/07 12:42:49;;;;;;;4.10;3.33;;;24.50;39.40;;;;;;5035744;28;20025;-76
2021/06/07 12:45:18;;;;;;;4.28;3.20;;;24.80;39.60;;;;;;5029732;28;20044;-76
2021/06/07 12:47:44;;;;;;;13.77;3.45;;;24.30;39.30;;;;;;5032766;28;20129;-76
2021/06/07 12:50:25;;;;;;;4.15;3.53;;;24.20;39.50;;;;;;5038419;28;20057;-76
2021/06/07 12:52:56;;;;;;;4.13;3.47;;;24.40;39.30;;;;;;5032338;28;20053;-75
2021/06/07 12:55:30;;;;;;;3.55;3.25;;;24.70;38.40;;;;;;5063853;28;20041;-76
2021/06/07 12:57:57;;;;;;;5.50;3.55;;;24.90;37.70;;;;;;5048724;28;20021;-75
2021/06/07 13:00:35;;;;;;;3.78;3.30;;;25.10;36.10;;;;;;5030810;28;20383;-76